createdAt,value
2022-12-31T00:00:46.937Z,2.58
2022-12-31T00:03:48.983Z,2.54
2022-12-31T00:06:50.681Z,2.54
2022-12-31T00:09:52.329Z,2.48
2022-12-31T00:12:54.125Z,2.42
2022-12-31T00:15:55.835Z,2.45
2022-12-31T00:19:01.844Z,2.40
2022-12-31T00:22:03.514Z,2.34
2022-12-31T00:25:05.840Z,2.34
2022-12-31T00:28:07.516Z,2.32
2022-12-31T00:31:14.646Z,2.34
2022-12-31T00:34:16.336Z,2.41
2022-12-31T00:37:17.988Z,2.42
2022-12-31T00:40:19.661Z,2.44
2022-12-31T00:43:21.295Z,2.48
2022-12-31T00:46:23.609Z,2.53
2022-12-31T00:49:25.365Z,2.62
2022-12-31T00:52:26.984Z,2.53
2022-12-31T00:55:30.460Z,2.55
2022-12-31T00:58:33.255Z,2.60
2022-12-31T01:01:37.803Z,2.53
2022-12-31T01:04:39.662Z,2.48
2022-12-31T01:07:41.403Z,2.57
2022-12-31T01:11:06.463Z,2.63
2022-12-31T01:14:09.627Z,2.66
2022-12-31T01:17:13.356Z,2.63
2022-12-31T01:20:15.073Z,2.60
2022-12-31T01:23:16.720Z,2.59
2022-12-31T01:26:19.605Z,2.54
2022-12-31T01:29:21.481Z,2.61
2022-12-31T01:32:23.173Z,2.51
2022-12-31T01:35:25.012Z,2.59
2022-12-31T01:38:26.636Z,2.64
2022-12-31T01:41:35.137Z,2.82
2022-12-31T01:44:39.751Z,2.62
2022-12-31T01:47:52.816Z,2.76
2022-12-31T01:50:55.196Z,2.59
2022-12-31T01:53:58.596Z,2.65
2022-12-31T01:57:01.071Z,2.69
2022-12-31T02:00:04.189Z,2.63
2022-12-31T02:03:08.434Z,2.65
2022-12-31T02:06:21.908Z,2.61
2022-12-31T02:09:23.659Z,2.64
2022-12-31T02:12:25.475Z,2.52
2022-12-31T02:16:06.874Z,2.58
2022-12-31T02:19:29.999Z,2.64
2022-12-31T02:23:09.214Z,2.61
2022-12-31T02:26:48.224Z,2.63
2022-12-31T02:30:03.199Z,2.61
2022-12-31T02:33:27.956Z,2.75
2022-12-31T02:36:36.144Z,2.95
2022-12-31T02:39:38.623Z,3.06
2022-12-31T02:42:40.320Z,2.99
2022-12-31T02:45:47.444Z,2.97
2022-12-31T02:49:04.273Z,2.86
2022-12-31T02:52:30.137Z,3.10
2022-12-31T02:56:04.432Z,2.85
2022-12-31T02:59:44.683Z,3.24
2022-12-31T03:02:48.327Z,3.43
2022-12-31T03:05:50.650Z,3.41
2022-12-31T03:09:27.930Z,3.43
2022-12-31T03:12:58.274Z,3.32
2022-12-31T03:15:59.994Z,3.04
2022-12-31T03:19:24.661Z,3.37
2022-12-31T03:22:29.397Z,3.09
2022-12-31T03:25:38.111Z,2.93
2022-12-31T03:28:43.244Z,3.26
2022-12-31T03:31:44.958Z,3.47
2022-12-31T03:34:46.723Z,3.67
2022-12-31T03:37:50.268Z,3.76
2022-12-31T03:40:53.294Z,3.56
2022-12-31T03:43:54.947Z,3.52
2022-12-31T03:46:56.588Z,3.71
2022-12-31T03:49:58.384Z,3.92
2022-12-31T03:53:01.003Z,3.63
2022-12-31T03:56:02.810Z,3.43
2022-12-31T03:59:04.461Z,3.27
2022-12-31T04:02:06.539Z,3.51
2022-12-31T04:05:09.105Z,3.76
2022-12-31T04:08:10.821Z,3.43
2022-12-31T04:11:17.380Z,3.13
2022-12-31T04:14:22.249Z,2.91
2022-12-31T04:17:24.108Z,2.88
2022-12-31T04:20:44.014Z,2.97
2022-12-31T04:23:45.672Z,3.04
2022-12-31T04:26:47.554Z,3.19
2022-12-31T04:29:49.255Z,3.23
2022-12-31T04:32:50.949Z,2.84
2022-12-31T04:35:52.614Z,2.98
2022-12-31T04:38:54.387Z,2.91
2022-12-31T04:41:56.060Z,3.27
2022-12-31T04:44:57.700Z,3.13
2022-12-31T04:47:59.370Z,3.31
2022-12-31T04:51:01.136Z,3.06
2022-12-31T04:54:03.707Z,2.80
2022-12-31T04:57:05.363Z,2.85
2022-12-31T05:00:08.079Z,3.12
2022-12-31T05:03:09.736Z,3.13
2022-12-31T05:06:14.658Z,3.39
2022-12-31T05:09:16.373Z,3.39
2022-12-31T05:12:18.112Z,3.36
2022-12-31T05:15:19.778Z,3.46
2022-12-31T05:18:21.789Z,3.34
2022-12-31T05:21:23.510Z,3.61
2022-12-31T05:24:25.188Z,3.69
2022-12-31T05:27:31.276Z,3.68
2022-12-31T05:30:33.134Z,3.69
2022-12-31T05:33:34.876Z,3.66
2022-12-31T05:36:36.553Z,3.48
2022-12-31T05:39:38.204Z,3.50
2022-12-31T05:42:40.049Z,3.52
2022-12-31T05:45:41.816Z,3.61
2022-12-31T05:48:43.503Z,3.84
2022-12-31T05:51:45.170Z,3.95
2022-12-31T05:54:47.146Z,4.00
2022-12-31T05:57:48.808Z,4.11
2022-12-31T06:00:51.842Z,4.11
2022-12-31T06:03:53.551Z,4.18
2022-12-31T06:06:55.501Z,4.26
2022-12-31T06:09:57.157Z,3.82
2022-12-31T06:12:58.833Z,3.50
2022-12-31T06:16:10.823Z,3.75
2022-12-31T06:19:12.499Z,3.91
2022-12-31T06:22:14.193Z,4.05
2022-12-31T06:25:15.992Z,3.93
2022-12-31T06:28:20.371Z,4.00
2022-12-31T06:31:22.625Z,4.05
2022-12-31T06:34:24.337Z,4.03
2022-12-31T06:37:26.017Z,3.66
2022-12-31T06:40:27.695Z,3.41
2022-12-31T06:43:29.568Z,3.39
2022-12-31T06:46:31.313Z,3.57
2022-12-31T06:49:33.018Z,3.67
2022-12-31T06:52:34.655Z,3.74
2022-12-31T06:55:36.593Z,3.50
2022-12-31T06:58:38.526Z,3.37
2022-12-31T07:02:16.606Z,3.23
2022-12-31T07:05:36.661Z,3.60
2022-12-31T07:08:56.649Z,3.61
2022-12-31T07:12:12.589Z,3.33
2022-12-31T07:15:37.105Z,3.49
2022-12-31T07:19:16.023Z,3.26
2022-12-31T07:22:17.973Z,3.50
2022-12-31T07:25:20.546Z,3.98
2022-12-31T07:28:45.453Z,3.81
2022-12-31T07:32:00.993Z,3.99
2022-12-31T07:35:50.619Z,4.00
2022-12-31T07:39:10.546Z,3.81
2022-12-31T07:42:18.627Z,3.85
2022-12-31T07:45:39.023Z,3.56
2022-12-31T07:48:40.927Z,4.17
2022-12-31T07:51:43.099Z,4.18
2022-12-31T07:54:44.877Z,4.44
2022-12-31T07:58:01.726Z,4.56
2022-12-31T08:01:04.345Z,4.30
2022-12-31T08:04:09.737Z,4.49
2022-12-31T08:07:19.516Z,4.65
2022-12-31T08:10:37.680Z,4.85
2022-12-31T08:13:41.913Z,4.88
2022-12-31T08:16:44.002Z,4.68
2022-12-31T08:19:46.334Z,4.36
2022-12-31T08:22:47.887Z,4.09
2022-12-31T08:26:14.335Z,4.54
2022-12-31T08:29:34.287Z,4.97
2022-12-31T08:32:38.863Z,5.12
2022-12-31T08:35:49.609Z,5.16
2022-12-31T08:39:03.334Z,4.78
2022-12-31T08:42:17.295Z,4.36
2022-12-31T08:45:22.752Z,4.40
2022-12-31T08:48:37.748Z,4.28
2022-12-31T08:51:39.687Z,4.24
2022-12-31T08:54:41.648Z,4.13
2022-12-31T08:58:06.192Z,4.30
2022-12-31T09:01:08.828Z,4.25
2022-12-31T09:04:49.585Z,4.26
2022-12-31T09:08:06.198Z,4.10
2022-12-31T09:11:16.372Z,4.35
2022-12-31T09:14:44.354Z,4.41
2022-12-31T09:17:48.148Z,4.49
2022-12-31T09:20:50.058Z,4.84
2022-12-31T09:23:52.006Z,4.88
2022-12-31T09:27:11.479Z,5.07
2022-12-31T09:30:16.447Z,5.29
2022-12-31T09:33:38.240Z,4.66
2022-12-31T09:36:48.388Z,5.09
2022-12-31T09:39:50.789Z,4.93
2022-12-31T09:43:22.217Z,4.90
2022-12-31T09:46:49.800Z,4.73
2022-12-31T09:50:18.905Z,4.79
2022-12-31T09:53:26.412Z,5.18
2022-12-31T09:56:39.822Z,5.04
2022-12-31T09:59:53.519Z,5.00
2022-12-31T10:03:27.182Z,5.00
2022-12-31T10:06:40.563Z,4.92
2022-12-31T10:10:07.875Z,4.95
2022-12-31T10:13:47.659Z,4.88
2022-12-31T10:16:58.138Z,5.10
2022-12-31T10:20:21.355Z,5.00
2022-12-31T10:23:28.871Z,5.65
2022-12-31T10:26:30.366Z,5.56
2022-12-31T10:29:41.019Z,5.62
2022-12-31T10:33:13.559Z,5.87
2022-12-31T10:36:45.833Z,5.94
2022-12-31T10:40:09.269Z,5.84
2022-12-31T10:43:35.687Z,6.29
2022-12-31T10:47:14.611Z,6.13
2022-12-31T10:50:28.647Z,5.61
2022-12-31T10:53:33.136Z,5.83
2022-12-31T10:56:50.272Z,5.49
2022-12-31T11:00:07.606Z,5.61
2022-12-31T11:03:29.765Z,5.89
2022-12-31T11:07:13.161Z,5.95
2022-12-31T11:10:17.723Z,5.89
2022-12-31T11:13:51.380Z,6.18
2022-12-31T11:17:01.955Z,6.24
2022-12-31T11:20:15.115Z,6.19
2022-12-31T11:23:35.615Z,6.54
2022-12-31T11:26:55.014Z,6.30
2022-12-31T11:29:56.599Z,6.23
2022-12-31T11:33:07.220Z,6.16
2022-12-31T11:36:30.429Z,6.21
2022-12-31T11:39:35.461Z,6.41
2022-12-31T11:42:51.089Z,6.85
2022-12-31T11:46:18.010Z,6.99
2022-12-31T11:49:41.234Z,7.07
2022-12-31T11:53:01.710Z,7.36
2022-12-31T11:56:15.905Z,7.42
2022-12-31T11:59:19.823Z,7.49
2022-12-31T12:02:26.746Z,7.42
2022-12-31T12:05:29.549Z,7.51
2022-12-31T12:08:33.042Z,7.57
2022-12-31T12:11:39.022Z,7.57
2022-12-31T12:14:43.459Z,7.50
2022-12-31T12:17:51.978Z,7.64
2022-12-31T12:20:55.832Z,7.91
2022-12-31T12:24:01.693Z,7.65
2022-12-31T12:27:03.361Z,7.79
2022-12-31T12:30:19.513Z,7.33
2022-12-31T12:33:21.733Z,7.74
2022-12-31T12:36:23.381Z,7.98
2022-12-31T12:39:28.390Z,7.99
2022-12-31T12:42:30.716Z,8.21
2022-12-31T12:45:51.741Z,8.17
2022-12-31T12:48:56.868Z,7.98
2022-12-31T12:52:08.769Z,8.25
2022-12-31T12:55:25.524Z,8.23
2022-12-31T12:58:35.873Z,8.35
2022-12-31T13:01:47.870Z,8.14
2022-12-31T13:05:20.498Z,7.54
2022-12-31T13:08:46.079Z,7.60
2022-12-31T13:12:10.125Z,7.31
2022-12-31T13:15:11.679Z,7.22
2022-12-31T13:18:29.678Z,7.76
2022-12-31T13:21:36.345Z,7.64
2022-12-31T13:25:19.435Z,7.35
2022-12-31T13:28:24.628Z,7.24
2022-12-31T13:31:36.581Z,7.12
2022-12-31T13:34:42.410Z,7.12
2022-12-31T13:37:45.547Z,6.82
2022-12-31T13:40:50.196Z,7.45
2022-12-31T13:44:19.577Z,7.61
2022-12-31T13:47:33.690Z,7.38
2022-12-31T13:50:47.947Z,7.23
2022-12-31T13:53:59.979Z,7.22
2022-12-31T13:57:09.058Z,7.14
2022-12-31T14:00:26.614Z,7.49
2022-12-31T14:03:46.095Z,7.46
2022-12-31T14:06:58.323Z,7.54
2022-12-31T14:10:00.009Z,7.42
2022-12-31T14:13:20.868Z,7.22
2022-12-31T14:16:36.962Z,7.33
2022-12-31T14:19:44.746Z,7.41
2022-12-31T14:22:55.438Z,7.55
2022-12-31T14:26:05.691Z,7.83
2022-12-31T14:29:07.319Z,7.69
2022-12-31T14:32:18.025Z,7.55
2022-12-31T14:35:35.109Z,7.64
2022-12-31T14:38:45.112Z,7.56
2022-12-31T14:41:56.183Z,7.38
2022-12-31T14:45:16.992Z,7.42
2022-12-31T14:48:22.304Z,7.27
2022-12-31T14:51:29.264Z,7.09
2022-12-31T14:54:38.472Z,6.91
2022-12-31T14:58:25.344Z,7.25
2022-12-31T15:01:08.622Z,7.32
2022-12-31T15:04:15.164Z,7.04
2022-12-31T15:07:27.061Z,7.09
2022-12-31T15:11:04.969Z,7.39
2022-12-31T15:14:44.415Z,7.43
2022-12-31T15:18:11.097Z,7.50
2022-12-31T15:21:51.603Z,7.42
2022-12-31T15:24:53.307Z,7.12
2022-12-31T15:27:57.899Z,7.01
2022-12-31T15:31:04.753Z,6.98
2022-12-31T15:34:23.602Z,6.79
2022-12-31T15:37:34.325Z,6.56
2022-12-31T15:40:47.055Z,6.80
2022-12-31T15:44:09.767Z,6.97
2022-12-31T15:47:25.805Z,6.82
2022-12-31T15:50:29.248Z,6.99
2022-12-31T15:53:53.349Z,7.11
2022-12-31T15:56:55.024Z,6.75
2022-12-31T16:00:01.401Z,6.68
2022-12-31T16:03:03.592Z,6.83
2022-12-31T16:06:13.776Z,6.92
2022-12-31T16:09:25.513Z,6.77
2022-12-31T16:12:34.451Z,6.72
2022-12-31T16:15:39.123Z,6.74
2022-12-31T16:18:43.359Z,6.99
2022-12-31T16:21:45.855Z,6.74
2022-12-31T16:25:28.929Z,6.81
2022-12-31T16:28:23.803Z,7.04
2022-12-31T16:31:28.810Z,7.01
2022-12-31T16:34:36.977Z,6.76
2022-12-31T16:37:38.636Z,7.06
2022-12-31T16:40:42.920Z,7.05
2022-12-31T16:43:47.120Z,7.11
2022-12-31T16:46:50.078Z,6.59
2022-12-31T16:50:20.452Z,6.39
2022-12-31T16:53:26.566Z,6.61
2022-12-31T16:56:38.347Z,6.96
2022-12-31T16:59:44.742Z,6.67
2022-12-31T17:03:20.388Z,6.56
2022-12-31T17:06:23.238Z,6.45
2022-12-31T17:09:36.581Z,6.26
2022-12-31T17:13:25.378Z,6.24
2022-12-31T17:16:06.851Z,6.35
2022-12-31T17:19:31.144Z,6.29
2022-12-31T17:22:42.434Z,6.32
2022-12-31T17:25:44.074Z,5.97
2022-12-31T17:28:51.729Z,6.09
2022-12-31T17:32:00.671Z,5.92
2022-12-31T17:35:02.794Z,5.78
2022-12-31T17:38:22.627Z,5.81
2022-12-31T17:41:27.379Z,5.33
2022-12-31T17:44:29.430Z,5.44
2022-12-31T17:47:40.117Z,5.58
2022-12-31T17:50:50.962Z,5.55
2022-12-31T17:53:52.737Z,5.14
2022-12-31T17:56:54.454Z,5.10
2022-12-31T17:59:56.420Z,5.11
2022-12-31T18:02:58.111Z,5.25
2022-12-31T18:05:59.859Z,5.45
2022-12-31T18:09:01.552Z,5.44
2022-12-31T18:12:05.877Z,5.27
2022-12-31T18:15:07.934Z,5.27
2022-12-31T18:18:30.645Z,4.98
2022-12-31T18:21:36.192Z,4.66
2022-12-31T18:24:37.893Z,4.56
2022-12-31T18:27:42.059Z,4.54
2022-12-31T18:30:45.855Z,4.58
2022-12-31T18:33:50.139Z,5.00
2022-12-31T18:36:51.796Z,5.09
2022-12-31T18:39:53.561Z,4.89
2022-12-31T18:42:58.461Z,4.85
2022-12-31T18:46:04.687Z,5.12
2022-12-31T18:49:06.361Z,4.91
2022-12-31T18:52:16.431Z,5.23
2022-12-31T18:55:40.790Z,4.98
2022-12-31T18:58:42.972Z,5.23
2022-12-31T19:01:44.710Z,5.41
2022-12-31T19:04:47.616Z,5.60
2022-12-31T19:07:49.287Z,5.63
2022-12-31T19:10:52.330Z,5.30
2022-12-31T19:13:53.994Z,5.23
2022-12-31T19:16:57.103Z,5.29
2022-12-31T19:20:04.252Z,4.96
2022-12-31T19:23:06.005Z,4.85
2022-12-31T19:26:07.654Z,4.91
2022-12-31T19:29:21.354Z,4.81
2022-12-31T19:32:23.017Z,5.15
2022-12-31T19:35:25.246Z,5.37
2022-12-31T19:38:29.114Z,5.21
2022-12-31T19:41:31.194Z,5.07
2022-12-31T19:44:32.824Z,4.70
2022-12-31T19:47:34.470Z,4.58
2022-12-31T19:50:36.189Z,4.88
2022-12-31T19:53:38.299Z,5.28
2022-12-31T19:56:40.188Z,5.35
2022-12-31T19:59:41.847Z,5.50
2022-12-31T20:02:46.287Z,5.62
2022-12-31T20:05:48.108Z,5.48
2022-12-31T20:08:49.773Z,5.66
2022-12-31T20:11:51.474Z,5.72
2022-12-31T20:14:53.136Z,5.75
2022-12-31T20:17:57.777Z,5.84
2022-12-31T20:20:59.425Z,5.71
2022-12-31T20:24:01.170Z,5.71
2022-12-31T20:27:03.162Z,5.79
2022-12-31T20:30:05.354Z,5.09
2022-12-31T20:33:07.002Z,5.19
2022-12-31T20:36:11.202Z,5.15
2022-12-31T20:39:13.002Z,5.17
2022-12-31T20:42:14.649Z,5.23
2022-12-31T20:45:16.363Z,5.40
2022-12-31T20:48:18.021Z,5.35
2022-12-31T20:51:22.259Z,5.30
2022-12-31T20:54:23.906Z,4.82
2022-12-31T20:57:28.820Z,4.59
2022-12-31T21:00:34.924Z,4.59
2022-12-31T21:07:00.639Z,4.70
2022-12-31T21:10:02.328Z,4.73
2022-12-31T21:13:03.996Z,4.68
2022-12-31T21:16:05.860Z,4.67
2022-12-31T21:19:07.720Z,4.66
2022-12-31T21:22:09.444Z,4.65
2022-12-31T21:25:11.264Z,4.64
2022-12-31T21:28:13.289Z,4.60
2022-12-31T21:31:15.439Z,4.57
2022-12-31T21:34:17.245Z,4.00
2022-12-31T21:37:18.880Z,3.56
2022-12-31T21:40:20.568Z,3.46
2022-12-31T21:43:22.214Z,3.53
2022-12-31T21:46:24.011Z,4.01
2022-12-31T21:49:25.702Z,4.17
2022-12-31T21:52:27.387Z,4.29
2022-12-31T21:55:47.962Z,4.31
2022-12-31T21:59:16.904Z,4.17
2022-12-31T22:02:38.217Z,4.04
2022-12-31T22:05:50.581Z,3.79
2022-12-31T22:08:55.059Z,3.45
2022-12-31T22:11:56.712Z,3.22
2022-12-31T22:15:14.750Z,2.82
2022-12-31T22:18:18.042Z,2.65
2022-12-31T22:21:22.108Z,2.39
2022-12-31T22:24:23.803Z,2.35
2022-12-31T22:27:28.216Z,2.35
2022-12-31T22:30:31.333Z,2.49
2022-12-31T22:33:33.052Z,2.53
2022-12-31T22:36:34.741Z,2.99
2022-12-31T22:39:44.141Z,3.24
2022-12-31T22:42:46.577Z,2.89
2022-12-31T22:45:48.269Z,2.95
2022-12-31T22:48:50.906Z,2.40
2022-12-31T22:51:56.903Z,1.99
2022-12-31T22:55:00.547Z,1.89
2022-12-31T22:58:02.382Z,1.89
2022-12-31T23:01:06.171Z,1.87
2022-12-31T23:04:07.994Z,2.14
2022-12-31T23:07:09.680Z,2.11
2022-12-31T23:10:30.013Z,2.33
2022-12-31T23:13:57.091Z,2.54
2022-12-31T23:17:31.055Z,2.93
2022-12-31T23:20:52.446Z,3.17
2022-12-31T23:23:54.094Z,3.18
2022-12-31T23:26:57.126Z,3.26
2022-12-31T23:29:58.817Z,3.31
2022-12-31T23:33:00.551Z,3.25
2022-12-31T23:36:06.543Z,3.24
2022-12-31T23:39:08.400Z,3.36
2022-12-31T23:42:10.180Z,3.39
2022-12-31T23:45:11.819Z,3.38
2022-12-31T23:48:13.483Z,3.38
2022-12-31T23:51:15.205Z,3.30
2022-12-31T23:54:17.886Z,3.28
2022-12-31T23:57:19.760Z,3.36
